Time;durP1;ratioP1;P1;durP2;ratioP2;P2;SDS_P1;SDS_P2;PMS_P1;PMS_P2;Temp;Humidity;BMP_temperature;BMP_pressure;BME280_temperature;BME280_humidity;BME280_pressure;Samples;Min_cycle;Max_cycle;Signal;HPM_P1;HPM_P2
2021/11/20 00:01:26;;;;;;;82.37;10.73;;;1.90;99.90;;;;;;4996621;28;20462;-79
2021/11/20 00:03:52;;;;;;;48.83;10.50;;;1.90;99.90;;;;;;4997378;28;20414;-78
2021/11/20 00:06:28;;;;;;;63.70;9.70;;;1.90;99.90;;;;;;4997519;28;20768;-78
2021/11/20 00:08:54;;;;;;;73.23;12.93;;;;;;;;;;4995793;28;20468;-78
2021/11/20 00:11:24;;;;;;;114.10;11.60;;;1.90;99.90;;;;;;4995614;28;20492;-78
2021/11/20 00:13:51;;;;;;;95.17;11.50;;;1.90;99.90;;;;;;4997273;28;20407;-78
2021/11/20 00:16:20;;;;;;;180.40;14.07;;;1.70;99.90;;;;;;4996055;28;20414;-78
2021/11/20 00:18:46;;;;;;;67.77;16.23;;;2.00;99.90;;;;;;4996267;28;20931;-79
2021/11/20 00:21:20;;;;;;;82.80;12.50;;;2.00;99.90;;;;;;5004009;28;20547;-78
2021/11/20 00:23:52;;;;;;;94.83;12.80;;;2.00;99.90;;;;;;5013242;28;20474;-78
2021/11/20 00:26:21;;;;;;;52.70;11.73;;;1.70;99.90;;;;;;5013970;28;20403;-78
2021/11/20 00:29:11;;;;;;;76.83;11.17;;;2.00;99.90;;;;;;5010977;28;20421;-78
2021/11/20 00:31:40;;;;;;;68.30;11.53;;;2.10;99.90;;;;;;4995106;28;20520;-78
2021/11/20 00:34:12;;;;;;;45.10;10.60;;;2.00;99.90;;;;;;4995649;28;20510;-78
2021/11/20 00:36:38;;;;;;;64.43;10.07;;;;;;;;;;4996682;28;20422;-79
2021/11/20 00:39:06;;;;;;;33.47;10.83;;;2.00;99.90;;;;;;4996787;28;20749;-78
2021/11/20 00:41:32;;;;;;;53.87;10.07;;;;;;;;;;4996599;28;20489;-79
2021/11/20 00:43:59;;;;;;;53.43;10.40;;;;;;;;;;4996796;28;20418;-78
2021/11/20 00:46:28;;;;;;;58.17;10.80;;;2.00;99.90;;;;;;4996720;28;20411;-79
2021/11/20 00:48:54;;;;;;;50.97;10.43;;;;;;;;;;4997121;28;20415;-78
2021/11/20 00:51:22;;;;;;;50.53;9.97;;;2.00;99.90;;;;;;4996837;28;20518;-79
2021/11/20 00:53:48;;;;;;;68.50;10.57;;;1.90;99.90;;;;;;4997650;28;20510;-79
2021/11/20 00:56:16;;;;;;;60.03;10.53;;;1.90;99.90;;;;;;5002102;28;20909;-78
2021/11/20 00:58:43;;;;;;;59.90;9.93;;;1.90;99.90;;;;;;5000489;28;20430;-79
2021/11/20 01:01:13;;;;;;;70.47;9.80;;;1.80;99.90;;;;;;5001330;28;20501;-79
2021/11/20 01:03:39;;;;;;;69.67;13.27;;;;;;;;;;5002131;28;20457;-79
2021/11/20 01:06:05;;;;;;;55.37;9.73;;;1.70;99.90;;;;;;5002124;28;20415;-78
2021/11/20 01:08:47;;;;;;;75.73;10.53;;;1.70;99.90;;;;;;4998359;28;20421;-78
2021/11/20 01:11:37;;;;;;;60.43;9.33;;;1.70;99.90;;;;;;4999889;28;20199;-78
2021/11/20 01:14:06;;;;;;;24.63;9.37;;;1.70;99.90;;;;;;4999374;28;20433;-78
2021/11/20 01:16:33;;;;;;;27.27;10.57;;;1.70;99.90;;;;;;4998510;28;20414;-78
2021/11/20 01:19:00;;;;;;;55.97;10.07;;;1.70;99.90;;;;;;4999825;28;20757;-78
2021/11/20 01:21:27;;;;;;;40.70;10.13;;;1.70;99.90;;;;;;4998005;28;20886;-78
2021/11/20 01:23:53;;;;;;;36.47;9.93;;;1.80;99.90;;;;;;4998574;28;20419;-78
2021/11/20 01:26:21;;;;;;;33.33;10.37;;;1.80;99.90;;;;;;4999700;28;20421;-78
2021/11/20 01:28:50;;;;;;;66.77;10.23;;;1.80;99.90;;;;;;4999744;28;20226;-78
2021/11/20 01:31:19;;;;;;;50.47;10.40;;;1.80;99.90;;;;;;4997984;28;20489;-78
2021/11/20 01:33:46;;;;;;;47.27;10.10;;;1.90;99.90;;;;;;4999483;28;20850;-78
2021/11/20 01:36:16;;;;;;;29.40;10.13;;;1.90;99.90;;;;;;4998588;28;20770;-79
2021/11/20 01:38:42;;;;;;;31.90;9.33;;;1.80;99.90;;;;;;4999814;28;20414;-78
2021/11/20 01:41:08;;;;;;;25.20;10.10;;;;;;;;;;4999676;28;20473;-79
2021/11/20 01:43:34;;;;;;;36.73;9.87;;;;;;;;;;4999617;28;20178;-78
2021/11/20 01:46:11;;;;;;;185.53;15.40;;;1.90;99.90;;;;;;5000034;28;20761;-78
2021/11/20 01:48:58;;;;;;;88.70;10.13;;;1.90;99.90;;;;;;4998768;28;20428;-78
2021/11/20 01:51:34;;;;;;;86.40;10.70;;;1.80;99.90;;;;;;4998283;28;20451;-78
2021/11/20 01:54:22;;;;;;;203.50;12.27;;;1.80;99.90;;;;;;5000269;28;20399;-79
2021/11/20 01:57:06;;;;;;;155.50;15.87;;;1.80;99.90;;;;;;4998513;28;20434;-78
2021/11/20 01:59:56;;;;;;;142.50;11.60;;;1.80;99.90;;;;;;4998484;28;20502;-78
2021/11/20 02:02:44;;;;;;;128.60;11.23;;;1.70;99.90;;;;;;4997926;28;20839;-78
2021/11/20 02:05:12;;;;;;;146.20;11.37;;;1.60;99.90;;;;;;4998707;28;20406;-78
2021/11/20 02:08:04;;;;;;;159.37;11.33;;;1.60;99.90;;;;;;4998665;28;20422;-79
2021/11/20 02:10:45;;;;;;;83.43;9.63;;;1.60;99.90;;;;;;4998655;28;20426;-79
2021/11/20 02:13:14;;;;;;;129.53;10.87;;;1.50;99.90;;;;;;4998399;28;20958;-78
2021/11/20 02:15:52;;;;;;;113.37;15.13;;;1.50;99.90;;;;;;4998975;28;20426;-78
2021/11/20 02:18:21;;;;;;;131.70;10.50;;;1.50;99.90;;;;;;4999967;28;20419;-79
2021/11/20 02:20:55;;;;;;;53.93;9.50;;;1.50;99.90;;;;;;4998630;28;20407;-79
2021/11/20 02:23:21;;;;;;;95.70;11.53;;;1.50;99.90;;;;;;4999102;28;20430;-78
2021/11/20 02:25:48;;;;;;;74.83;10.23;;;1.40;99.90;;;;;;5008367;28;20414;-78
2021/11/20 02:28:15;;;;;;;61.13;9.83;;;1.30;99.90;;;;;;5014068;28;20175;-77
2021/11/20 02:30:44;;;;;;;66.43;9.70;;;1.40;99.90;;;;;;5014991;28;20430;-78
2021/11/20 02:33:26;;;;;;;87.43;12.33;;;1.40;99.90;;;;;;5008736;28;20806;-79
2021/11/20 02:36:01;;;;;;;26.83;8.80;;;1.40;99.90;;;;;;4998591;28;20911;-79
2021/11/20 02:38:29;;;;;;;27.27;8.90;;;1.40;99.90;;;;;;4997562;28;20472;-78
2021/11/20 02:40:57;;;;;;;79.33;8.37;;;1.30;99.90;;;;;;4996668;28;20420;-78
2021/11/20 02:43:25;;;;;;;46.87;10.17;;;1.30;99.90;;;;;;4998476;28;20419;-78
2021/11/20 02:45:54;;;;;;;102.33;9.43;;;1.30;99.90;;;;;;4997687;28;20857;-78
2021/11/20 02:48:20;;;;;;;21.60;7.80;;;1.20;99.90;;;;;;4997135;28;20442;-79
2021/11/20 02:50:54;;;;;;;44.97;9.83;;;1.20;99.90;;;;;;4998180;28;20816;-80
2021/11/20 02:54:06;;;;;;;36.37;8.73;;;1.20;99.90;;;;;;4998506;28;20395;-78
2021/11/20 02:56:39;;;;;;;43.30;7.63;;;1.20;99.90;;;;;;4941433;29;20427;-78
2021/11/20 02:59:05;;;;;;;63.13;9.73;;;1.20;99.90;;;;;;4996097;28;20418;-79
2021/11/20 03:01:35;;;;;;;29.30;8.83;;;1.30;99.90;;;;;;4999997;28;20463;-78
2021/11/20 03:04:03;;;;;;;90.07;8.70;;;1.30;99.90;;;;;;4997789;28;20454;-78
2021/11/20 03:06:29;;;;;;;38.93;7.97;;;1.20;99.90;;;;;;4998090;28;20407;-78
2021/11/20 03:08:55;;;;;;;32.77;6.70;;;1.20;99.90;;;;;;4998298;28;20406;-79
2021/11/20 03:11:21;;;;;;;48.67;8.03;;;1.10;99.90;;;;;;4998136;28;20439;-79
2021/11/20 03:13:50;;;;;;;79.43;7.77;;;1.10;99.90;;;;;;4996923;28;20418;-79
2021/11/20 03:16:16;;;;;;;16.70;8.03;;;1.10;99.90;;;;;;4997531;28;20176;-79
2021/11/20 03:18:42;;;;;;;44.60;8.30;;;1.20;99.90;;;;;;4998336;28;20888;-78
2021/11/20 03:21:08;;;;;;;58.43;7.83;;;1.10;99.90;;;;;;4997949;28;20464;-78
2021/11/20 03:23:48;;;;;;;44.97;8.03;;;1.10;99.90;;;;;;4996899;28;20214;-78
2021/11/20 03:26:16;;;;;;;61.20;10.03;;;1.10;99.90;;;;;;4998515;28;20166;-78
2021/11/20 03:28:42;;;;;;;21.10;9.17;;;1.10;99.90;;;;;;4997685;28;20417;-79
2021/11/20 03:31:08;;;;;;;65.67;7.63;;;0.90;99.90;;;;;;4997805;28;20473;-78
2021/11/20 03:33:33;;;;;;;26.93;6.77;;;0.90;99.90;;;;;;5000220;28;20675;-78
2021/11/20 03:36:00;;;;;;;44.90;7.37;;;0.80;99.90;;;;;;4998230;28;20175;-79
2021/11/20 03:38:26;;;;;;;34.53;8.33;;;0.80;99.90;;;;;;4997579;28;20199;-78
2021/11/20 03:40:52;;;;;;;97.33;8.23;;;0.70;99.90;;;;;;4997507;28;20415;-78
2021/11/20 03:43:18;;;;;;;103.57;9.63;;;0.70;99.90;;;;;;4997610;28;20403;-78
2021/11/20 03:45:44;;;;;;;72.97;9.10;;;0.60;99.90;;;;;;4997765;28;20207;-79
2021/11/20 03:48:13;;;;;;;100.13;15.43;;;0.60;99.90;;;;;;4994399;28;20180;-78
2021/11/20 03:50:40;;;;;;;56.97;15.53;;;0.70;99.90;;;;;;4995747;28;20515;-78
2021/11/20 03:53:07;;;;;;;65.03;7.77;;;0.70;99.90;;;;;;4995532;28;20990;-77
2021/11/20 03:55:37;;;;;;;95.33;10.73;;;0.60;99.90;;;;;;4994293;28;20513;-78
2021/11/20 03:58:05;;;;;;;86.53;18.17;;;0.60;99.90;;;;;;4995783;28;20503;-78
2021/11/20 04:00:36;;;;;;;59.27;12.70;;;0.60;99.90;;;;;;4995789;28;20402;-78
2021/11/20 04:03:03;;;;;;;106.70;10.40;;;0.60;99.90;;;;;;4994556;28;20822;-78
2021/11/20 04:05:32;;;;;;;59.67;10.87;;;0.70;99.90;;;;;;4995939;28;20487;-78
2021/11/20 04:07:58;;;;;;;65.20;8.27;;;;;;;;;;4995726;28;20498;-78
2021/11/20 04:10:24;;;;;;;69.23;10.97;;;0.70;99.90;;;;;;4995818;28;20407;-79
2021/11/20 04:12:50;;;;;;;58.50;7.57;;;0.60;99.90;;;;;;4994101;28;20462;-78
2021/11/20 04:15:20;;;;;;;86.10;9.30;;;0.40;99.90;;;;;;4993889;28;20924;-78
2021/11/20 04:17:46;;;;;;;62.00;9.17;;;;;;;;;;4995069;28;20175;-78
2021/11/20 04:20:15;;;;;;;78.37;8.77;;;0.50;99.90;;;;;;4993567;28;20896;-78
2021/11/20 04:22:41;;;;;;;43.77;7.97;;;0.60;99.90;;;;;;4995033;28;20613;-78
2021/11/20 04:25:08;;;;;;;55.10;9.13;;;0.80;99.90;;;;;;4998458;28;20438;-78
2021/11/20 04:27:34;;;;;;;50.97;7.90;;;0.70;99.90;;;;;;4999057;28;20183;-77
2021/11/20 04:30:00;;;;;;;34.23;7.73;;;0.80;99.90;;;;;;4997583;28;20429;-79
2021/11/20 04:32:26;;;;;;;224.97;11.63;;;0.80;99.90;;;;;;5004151;28;20215;-77
2021/11/20 04:34:52;;;;;;;112.63;7.53;;;0.70;99.90;;;;;;5005714;28;20430;-77
2021/11/20 04:37:18;;;;;;;117.10;8.67;;;0.60;99.90;;;;;;4999004;28;20179;-78
2021/11/20 04:39:44;;;;;;;153.00;9.17;;;0.50;99.90;;;;;;4994439;28;20434;-77
2021/11/20 04:42:10;;;;;;;150.30;9.10;;;0.50;99.90;;;;;;4994954;28;20569;-78
2021/11/20 04:44:36;;;;;;;58.30;8.03;;;0.50;99.90;;;;;;4993754;28;20180;-77
2021/11/20 04:47:02;;;;;;;62.33;7.00;;;0.50;99.90;;;;;;4994002;28;20430;-78
2021/11/20 04:49:28;;;;;;;129.77;8.40;;;0.40;99.90;;;;;;4993373;28;20181;-78
2021/11/20 04:51:54;;;;;;;82.40;13.70;;;0.30;99.90;;;;;;4994806;28;20934;-77
2021/11/20 04:54:20;;;;;;;85.37;9.53;;;0.20;99.90;;;;;;4994864;28;20182;-78
2021/11/20 04:56:46;;;;;;;96.13;17.63;;;0.20;99.90;;;;;;4993731;28;20226;-77
2021/11/20 04:59:12;;;;;;;89.20;9.23;;;0.20;99.90;;;;;;4995178;28;20403;-78
2021/11/20 05:01:37;;;;;;;73.57;9.00;;;0.20;99.90;;;;;;4994489;28;20677;-77
2021/11/20 05:04:03;;;;;;;37.00;7.40;;;0.20;99.90;;;;;;4993862;28;20179;-77
2021/11/20 05:06:29;;;;;;;124.67;23.97;;;0.40;99.90;;;;;;4995057;28;20251;-78
2021/11/20 05:08:59;;;;;;;52.03;13.20;;;0.30;99.90;;;;;;4995464;28;20434;-78
2021/11/20 05:11:28;;;;;;;91.50;9.30;;;0.40;99.90;;;;;;4993066;28;20210;-77
2021/11/20 05:13:54;;;;;;;47.63;7.87;;;0.40;99.90;;;;;;4993638;28;20426;-77
2021/11/20 05:16:20;;;;;;;28.90;9.50;;;0.40;99.90;;;;;;4993392;28;20433;-78
2021/11/20 05:18:47;;;;;;;79.73;10.57;;;0.30;99.90;;;;;;4994649;28;20263;-77
2021/11/20 05:21:13;;;;;;;24.87;10.60;;;;;;;;;;4993248;28;20474;-77
2021/11/20 05:23:40;;;;;;;28.63;7.97;;;0.20;99.90;;;;;;4995075;28;20411;-77
2021/11/20 05:26:08;;;;;;;61.90;12.30;;;0.20;99.90;;;;;;4993187;28;20462;-77
2021/11/20 05:28:35;;;;;;;44.23;11.80;;;0.20;99.90;;;;;;4993261;28;20505;-77
2021/11/20 05:31:01;;;;;;;32.47;7.23;;;0.10;99.90;;;;;;4994133;28;20411;-77
2021/11/20 05:33:35;;;;;;;29.20;7.27;;;0.10;99.90;;;;;;4993161;28;20792;-77
2021/11/20 05:36:02;;;;;;;41.27;9.13;;;0.20;99.90;;;;;;4994922;28;20877;-78
2021/11/20 05:38:27;;;;;;;60.30;7.77;;;0.20;99.90;;;;;;4994488;28;20502;-78
2021/11/20 05:40:53;;;;;;;21.60;8.40;;;0.20;99.90;;;;;;4995454;28;20446;-78
2021/11/20 05:43:21;;;;;;;9.60;7.10;;;0.20;99.90;;;;;;4997166;28;20179;-78
2021/11/20 05:45:51;;;;;;;71.43;9.43;;;0.20;99.90;;;;;;4996988;28;20187;-78
2021/11/20 05:48:17;;;;;;;47.90;6.90;;;0.30;99.90;;;;;;4996896;28;20461;-78
2021/11/20 05:50:44;;;;;;;47.83;6.20;;;0.30;99.90;;;;;;4998057;28;20832;-78
2021/11/20 05:53:13;;;;;;;18.77;6.33;;;0.30;99.90;;;;;;4996802;28;20727;-78
2021/11/20 05:55:40;;;;;;;61.07;7.07;;;0.20;99.90;;;;;;4998703;28;20449;-78
2021/11/20 05:58:06;;;;;;;10.47;6.30;;;;;;;;;;4998076;28;20458;-78
2021/11/20 06:00:36;;;;;;;54.03;7.00;;;0.20;99.90;;;;;;4998777;28;20526;-78
2021/11/20 06:03:03;;;;;;;14.30;6.03;;;0.20;99.90;;;;;;4999047;28;20466;-78
2021/11/20 06:05:32;;;;;;;37.07;6.67;;;0.20;99.90;;;;;;4997357;28;20411;-77
2021/11/20 06:07:58;;;;;;;11.43;6.50;;;;;;;;;;4997531;28;20432;-78
2021/11/20 06:10:24;;;;;;;17.63;6.53;;;;;;;;;;4997299;28;20418;-77
2021/11/20 06:12:50;;;;;;;21.30;7.33;;;;;;;;;;4996051;28;20445;-78
2021/11/20 06:15:16;;;;;;;13.90;7.20;;;0.60;99.90;;;;;;4997666;28;20461;-78
2021/11/20 06:17:41;;;;;;;14.93;6.83;;;0.60;99.90;;;;;;4996037;28;20423;-78
2021/11/20 06:20:09;;;;;;;14.20;6.47;;;0.40;99.90;;;;;;4995844;28;20183;-78
2021/11/20 06:22:35;;;;;;;30.53;6.57;;;;;;;;;;4996788;28;20211;-78
2021/11/20 06:25:01;;;;;;;28.23;7.23;;;0.30;99.90;;;;;;4997117;28;20415;-78
2021/11/20 06:27:27;;;;;;;9.43;6.80;;;0.30;99.90;;;;;;4995899;28;20549;-78
2021/11/20 06:29:53;;;;;;;31.47;8.83;;;;;;;;;;4996932;28;20505;-78
2021/11/20 06:32:19;;;;;;;19.20;6.40;;;;;;;;;;4997708;28;20218;-78
2021/11/20 06:34:45;;;;;;;19.90;6.33;;;;;;;;;;5006264;28;20900;-77
2021/11/20 06:37:11;;;;;;;11.93;6.30;;;;;;;;;;5007755;28;20445;-77
2021/11/20 06:39:38;;;;;;;8.73;5.73;;;;;;;;;;5006638;28;20411;-77
2021/11/20 06:42:05;;;;;;;37.97;6.90;;;0.40;99.90;;;;;;4995396;28;20877;-78
2021/11/20 06:44:32;;;;;;;21.20;6.33;;;0.40;99.90;;;;;;4996028;28;20419;-78
2021/11/20 06:46:59;;;;;;;35.13;6.67;;;;;;;;;;4996788;28;20449;-78
2021/11/20 06:49:25;;;;;;;34.60;6.73;;;;;;;;;;4995394;28;20402;-78
2021/11/20 06:51:51;;;;;;;31.50;6.80;;;;;;;;;;4996343;28;20435;-77
2021/11/20 06:54:17;;;;;;;10.97;6.83;;;;;;;;;;4995457;28;20461;-78
2021/11/20 06:56:52;;;;;;;21.90;5.80;;;0.30;99.90;;;;;;4995441;28;20446;-77
2021/11/20 07:01:51;;;;;;;20.13;6.57;;;0.30;99.90;;;;;;4996410;28;20982;-78
2021/11/20 07:04:22;;;;;;;10.33;5.93;;;0.30;99.90;;;;;;4995387;28;20411;-78
2021/11/20 07:06:59;;;;;;;25.33;6.13;;;0.40;99.90;;;;;;4995312;28;20415;-78
2021/11/20 07:09:25;;;;;;;20.50;7.53;;;0.50;99.90;;;;;;4996803;28;20715;-78
2021/11/20 07:11:51;;;;;;;10.33;7.13;;;0.50;99.90;;;;;;4995113;28;20438;-78
2021/11/20 07:14:17;;;;;;;20.10;7.07;;;;;;;;;;4994885;28;20459;-78
2021/11/20 07:16:44;;;;;;;23.47;5.97;;;;;;;;;;4994661;28;20449;-78
2021/11/20 07:19:10;;;;;;;17.07;5.63;;;;;;;;;;4996600;28;20474;-77
2021/11/20 07:21:36;;;;;;;11.63;5.93;;;;;;;;;;4995764;28;20466;-78
2021/11/20 07:24:06;;;;;;;9.20;6.37;;;0.50;99.90;;;;;;4996282;28;20421;-78
2021/11/20 07:26:32;;;;;;;9.27;6.37;;;;;;;;;;4996176;28;20415;-78
2021/11/20 07:28:58;;;;;;;10.20;6.83;;;;;;;;;;4996096;28;20407;-78
2021/11/20 07:31:24;;;;;;;13.50;6.97;;;;;;;;;;4995703;28;20477;-78
2021/11/20 07:33:50;;;;;;;14.57;5.63;;;;;;;;;;4995036;28;20422;-78
2021/11/20 07:36:16;;;;;;;42.03;6.13;;;;;;;;;;4994706;28;20458;-78
2021/11/20 07:38:46;;;;;;;29.03;6.33;;;0.50;99.90;;;;;;4996324;28;20422;-78
2021/11/20 07:41:12;;;;;;;30.03;5.27;;;;;;;;;;5002762;28;20469;-78
2021/11/20 07:43:38;;;;;;;14.93;5.17;;;0.30;99.90;;;;;;5002482;28;20406;-78
2021/11/20 07:46:07;;;;;;;18.93;5.23;;;0.20;99.90;;;;;;4994861;28;20423;-78
2021/11/20 07:48:35;;;;;;;9.67;5.10;;;;;;;;;;4995671;28;20415;-79
2021/11/20 07:51:01;;;;;;;18.20;6.53;;;;;;;;;;4994486;28;20987;-78
2021/11/20 07:53:27;;;;;;;23.03;6.30;;;;;;;;;;4994550;28;20415;-78
2021/11/20 07:55:53;;;;;;;10.23;6.83;;;0.60;99.90;;;;;;4995537;28;20457;-78
2021/11/20 07:58:21;;;;;;;20.43;7.57;;;0.40;99.90;;;;;;4996108;28;20439;-78
2021/11/20 08:00:48;;;;;;;49.40;25.13;;;0.30;99.90;;;;;;4994800;28;20210;-78
2021/11/20 08:03:14;;;;;;;50.33;20.23;;;0.30;99.90;;;;;;4993531;28;20470;-77
2021/11/20 08:05:40;;;;;;;23.27;12.17;;;;;;;;;;4995721;28;20411;-78
2021/11/20 08:08:06;;;;;;;35.87;13.97;;;;;;;;;;4996183;28;20460;-78
2021/11/20 08:10:35;;;;;;;23.43;8.30;;;0.60;99.90;;;;;;4995782;28;20411;-78
2021/11/20 08:13:02;;;;;;;13.03;8.33;;;0.60;99.90;;;;;;4995631;28;20438;-78
2021/11/20 08:15:28;;;;;;;16.93;8.03;;;0.70;99.90;;;;;;4995564;28;20902;-78
2021/11/20 08:17:55;;;;;;;34.43;7.87;;;;;;;;;;4994926;28;20446;-77
2021/11/20 08:20:24;;;;;;;26.03;6.63;;;0.60;99.90;;;;;;4995427;28;20415;-78
2021/11/20 08:22:50;;;;;;;62.70;7.47;;;;;;;;;;4994729;28;20469;-78
2021/11/20 08:25:23;;;;;;;68.73;7.83;;;0.70;99.90;;;;;;4996430;28;20449;-78
2021/11/20 08:27:49;;;;;;;29.20;7.03;;;;;;;;;;4996049;28;20445;-78
2021/11/20 08:30:17;;;;;;;59.73;8.57;;;0.80;99.90;;;;;;4996145;28;20892;-77
2021/11/20 08:32:46;;;;;;;27.40;7.07;;;0.90;99.90;;;;;;4993253;28;20505;-77
2021/11/20 08:35:12;;;;;;;39.37;7.83;;;1.00;99.90;;;;;;4993318;28;20426;-77
2021/11/20 08:37:39;;;;;;;21.13;7.30;;;;;;;;;;4994772;28;20407;-78
2021/11/20 08:40:07;;;;;;;57.13;8.10;;;1.00;99.90;;;;;;4995405;28;20410;-78
2021/11/20 08:42:35;;;;;;;38.27;7.07;;;1.00;99.90;;;;;;4995044;28;20550;-81
2021/11/20 08:45:01;;;;;;;18.80;7.53;;;;;;;;;;4995170;28;20426;-78
2021/11/20 08:47:27;;;;;;;25.20;7.70;;;;;;;;;;4993611;28;20430;-78
2021/11/20 08:49:53;;;;;;;24.43;8.17;;;;;;;;;;4995020;28;20450;-78
2021/11/20 08:52:19;;;;;;;54.07;16.17;;;;;;;;;;4993467;28;20443;-77
2021/11/20 08:54:45;;;;;;;33.57;8.23;;;;;;;;;;4993582;28;21046;-78
2021/11/20 08:57:13;;;;;;;48.30;9.00;;;;;;;;;;4994860;28;20416;-78
2021/11/20 08:59:40;;;;;;;27.90;8.40;;;;;;;;;;4994922;28;20983;-78
2021/11/20 09:02:23;;;;;;;20.80;8.70;;;1.30;99.90;;;;;;4994551;28;20470;-78
2021/11/20 09:04:54;;;;;;;25.47;12.83;;;1.60;99.90;;;;;;4993614;28;20422;-78
2021/11/20 09:08:01;;;;;;;47.30;11.83;;;1.60;99.90;;;;;;4993820;28;20495;-78
2021/11/20 09:10:42;;;;;;;28.20;9.50;;;1.70;99.90;;;;;;4994001;28;20901;-79
2021/11/20 09:13:11;;;;;;;16.67;8.90;;;1.50;99.90;;;;;;4994419;28;20457;-79
2021/11/20 09:15:43;;;;;;;21.57;8.13;;;1.90;99.90;;;;;;4996863;28;20500;-78
2021/11/20 09:18:09;;;;;;;35.17;8.57;;;1.80;99.90;;;;;;4999703;28;20394;-78
2021/11/20 09:20:35;;;;;;;14.07;8.97;;;2.00;99.90;;;;;;4998092;28;20453;-78
2021/11/20 09:23:02;;;;;;;42.03;10.57;;;2.00;99.90;;;;;;4999382;28;20247;-78
2021/11/20 09:25:28;;;;;;;20.73;10.80;;;;;;;;;;4999495;28;20506;-78
2021/11/20 09:27:54;;;;;;;18.17;10.27;;;2.30;99.90;;;;;;4999143;28;20441;-80
2021/11/20 09:30:27;;;;;;;19.80;10.83;;;2.40;99.90;;;;;;4998069;28;20454;-79
2021/11/20 09:32:53;;;;;;;46.83;10.23;;;2.50;99.90;;;;;;4997765;28;20223;-78
2021/11/20 09:35:19;;;;;;;15.63;10.07;;;2.50;99.90;;;;;;4998737;28;20422;-78
2021/11/20 09:37:45;;;;;;;31.53;11.47;;;2.40;99.90;;;;;;4998574;28;20581;-78
2021/11/20 09:40:12;;;;;;;24.23;11.43;;;2.40;99.90;;;;;;4996752;28;20437;-78
2021/11/20 09:42:48;;;;;;;17.43;11.30;;;2.50;99.90;;;;;;4996720;28;20215;-79
2021/11/20 09:45:16;;;;;;;21.00;11.50;;;2.60;99.90;;;;;;4998320;28;20934;-79
2021/11/20 09:47:48;;;;;;;28.57;12.23;;;2.60;99.90;;;;;;4997056;28;20419;-78
2021/11/20 09:50:23;;;;;;;23.30;12.10;;;2.70;99.90;;;;;;4997171;28;20419;-79
2021/11/20 09:52:50;;;;;;;20.53;11.43;;;2.80;99.90;;;;;;4997308;28;20452;-78
2021/11/20 09:55:36;;;;;;;28.00;12.33;;;2.90;99.90;;;;;;4997789;28;20423;-78
2021/11/20 09:58:25;;;;;;;30.63;12.13;;;2.90;99.90;;;;;;4998728;28;20430;-79
2021/11/20 10:01:02;;;;;;;45.27;11.57;;;2.90;99.90;;;;;;4997500;28;20431;-79
2021/11/20 10:03:41;;;;;;;22.83;11.20;;;2.90;99.90;;;;;;4997555;28;20411;-79
2021/11/20 10:06:26;;;;;;;20.00;12.53;;;2.90;99.90;;;;;;4998630;28;20422;-78
2021/11/20 10:09:12;;;;;;;23.07;14.23;;;3.10;99.90;;;;;;4997837;28;20494;-79
2021/11/20 10:11:49;;;;;;;27.43;13.07;;;3.10;99.90;;;;;;4997204;28;20496;-79
2021/11/20 10:14:19;;;;;;;23.63;12.80;;;3.30;99.90;;;;;;4999435;28;20418;-80
2021/11/20 10:16:44;;;;;;;15.80;12.00;;;3.20;99.90;;;;;;4997612;28;20942;-79
2021/11/20 10:19:36;;;;;;;17.37;11.90;;;3.20;99.90;;;;;;4999754;28;20402;-79
2021/11/20 10:22:27;;;;;;;16.73;11.97;;;3.30;99.90;;;;;;4997245;28;20221;-79
2021/11/20 10:25:13;;;;;;;17.83;11.80;;;3.40;99.90;;;;;;4997819;28;20407;-79
2021/11/20 10:27:55;;;;;;;19.60;11.87;;;3.40;99.90;;;;;;4996733;28;20502;-79
2021/11/20 10:30:26;;;;;;;27.13;11.57;;;3.40;99.90;;;;;;4998693;28;20391;-79
2021/11/20 10:33:00;;;;;;;17.83;11.53;;;3.40;99.90;;;;;;4997253;28;20501;-79
2021/11/20 10:35:32;;;;;;;14.57;11.50;;;3.40;99.90;;;;;;4997456;28;20479;-79
2021/11/20 10:38:19;;;;;;;14.73;11.03;;;3.40;99.90;;;;;;4998886;28;20907;-79
2021/11/20 10:40:52;;;;;;;15.07;12.07;;;3.30;99.90;;;;;;4997712;28;20414;-79
2021/11/20 10:43:28;;;;;;;12.73;10.37;;;3.30;99.90;;;;;;4999687;28;20800;-79
2021/11/20 10:46:24;;;;;;;14.13;10.30;;;3.40;99.90;;;;;;4998956;28;20489;-79
2021/11/20 10:49:27;;;;;;;26.40;21.20;;;3.60;99.90;;;;;;4998828;28;20411;-80
2021/11/20 10:52:02;;;;;;;17.17;12.40;;;3.70;99.90;;;;;;4997365;28;21010;-79
2021/11/20 10:54:51;;;;;;;17.60;13.03;;;3.80;99.90;;;;;;4997399;28;20766;-79
2021/11/20 10:57:46;;;;;;;14.43;10.30;;;3.80;99.90;;;;;;4991323;28;20419;-80
2021/11/20 11:00:23;;;;;;;13.70;11.10;;;4.00;99.90;;;;;;4965484;28;20507;-79
2021/11/20 11:03:08;;;;;;;12.73;10.37;;;4.00;99.90;;;;;;4998100;28;20528;-79
2021/11/20 11:05:40;;;;;;;11.57;8.80;;;4.10;99.90;;;;;;4998263;28;20490;-79
2021/11/20 11:08:27;;;;;;;10.53;8.47;;;4.20;99.90;;;;;;4997747;28;20419;-79
2021/11/20 11:11:01;;;;;;;12.93;7.83;;;4.30;99.90;;;;;;4998534;28;20430;-79
2021/11/20 11:13:46;;;;;;;11.77;7.53;;;4.30;99.90;;;;;;4999601;28;20391;-80
2021/11/20 11:16:31;;;;;;;9.10;8.00;;;4.30;99.90;;;;;;4998888;28;20395;-80
2021/11/20 11:19:32;;;;;;;11.30;8.57;;;4.10;99.90;;;;;;4996729;28;20494;-79
2021/11/20 11:22:04;;;;;;;10.50;8.47;;;4.10;99.90;;;;;;4994904;28;20469;-80
2021/11/20 11:24:46;;;;;;;15.93;12.87;;;4.00;99.90;;;;;;4995750;28;20772;-79
2021/11/20 11:27:18;;;;;;;15.93;13.07;;;4.10;99.90;;;;;;4997067;28;20395;-79
2021/11/20 11:29:58;;;;;;;9.63;7.83;;;4.30;99.90;;;;;;4996661;28;20391;-79
2021/11/20 11:32:27;;;;;;;10.23;7.27;;;4.60;99.90;;;;;;4994360;28;20814;-79
2021/11/20 11:34:57;;;;;;;7.43;6.60;;;4.70;99.90;;;;;;4997452;28;20414;-79
2021/11/20 11:37:47;;;;;;;9.33;7.23;;;4.70;99.90;;;;;;4996713;28;20438;-79
2021/11/20 11:40:46;;;;;;;7.93;6.33;;;4.70;99.90;;;;;;4997963;28;20406;-80
2021/11/20 11:43:54;;;;;;;8.17;6.73;;;4.40;99.90;;;;;;4997047;28;20472;-80
2021/11/20 11:46:45;;;;;;;10.23;8.90;;;4.20;99.90;;;;;;4997377;28;20411;-80
2021/11/20 11:49:35;;;;;;;11.87;8.97;;;4.20;99.90;;;;;;4998421;28;20399;-80
2021/11/20 11:52:38;;;;;;;9.80;7.50;;;4.40;99.90;;;;;;4996304;28;20442;-81
2021/11/20 11:55:26;;;;;;;11.33;9.20;;;4.50;99.90;;;;;;4998658;28;20398;-80
2021/11/20 11:58:05;;;;;;;11.80;8.97;;;4.50;99.90;;;;;;4998524;28;20415;-80
2021/11/20 12:01:03;;;;;;;8.67;7.47;;;4.40;99.90;;;;;;4998466;28;20403;-81
2021/11/20 12:03:36;;;;;;;8.97;8.03;;;4.30;99.90;;;;;;4986969;28;20431;-80
2021/11/20 12:06:10;;;;;;;8.37;6.83;;;4.20;99.90;;;;;;4996988;28;20443;-81
2021/11/20 12:08:36;;;;;;;11.27;7.60;;;4.20;99.90;;;;;;4996865;28;20406;-80
2021/11/20 12:11:13;;;;;;;8.63;7.37;;;4.20;99.90;;;;;;4996638;28;20179;-80
2021/11/20 12:13:51;;;;;;;19.30;17.27;;;4.20;99.90;;;;;;4997469;28;20534;-80
2021/11/20 12:16:23;;;;;;;12.30;9.07;;;4.20;99.90;;;;;;4999572;28;20418;-80
2021/11/20 12:19:00;;;;;;;7.50;6.73;;;4.30;99.90;;;;;;5004568;28;20417;-79
2021/11/20 12:21:39;;;;;;;10.23;6.73;;;4.40;99.90;;;;;;5000590;28;20846;-80
2021/11/20 12:24:41;;;;;;;8.57;7.37;;;4.40;99.90;;;;;;4996059;28;20506;-80
2021/11/20 12:27:36;;;;;;;18.03;12.80;;;4.40;99.90;;;;;;4997241;28;20417;-79
2021/11/20 12:30:18;;;;;;;29.07;12.00;;;4.50;99.90;;;;;;4996978;28;20405;-79
2021/11/20 12:32:55;;;;;;;15.93;9.17;;;4.70;99.90;;;;;;4998332;28;20462;-80
2021/11/20 12:36:07;;;;;;;14.27;9.23;;;4.70;99.90;;;;;;4998110;28;20417;-80
2021/11/20 12:38:52;;;;;;;11.43;7.93;;;4.50;99.90;;;;;;5000982;28;20431;-78
2021/11/20 12:41:43;;;;;;;9.53;8.17;;;4.40;99.90;;;;;;5008037;28;20453;-79
2021/11/20 12:44:14;;;;;;;10.67;7.97;;;4.30;99.90;;;;;;4997445;28;20178;-79
2021/11/20 12:47:17;;;;;;;10.83;8.33;;;4.20;99.90;;;;;;4996687;28;20411;-80
2021/11/20 12:50:00;;;;;;;16.97;9.60;;;4.20;99.90;;;;;;4996512;28;20418;-79
2021/11/20 12:52:51;;;;;;;18.47;10.70;;;4.40;99.90;;;;;;5000165;28;20572;-80
2021/11/20 12:55:20;;;;;;;41.07;17.17;;;4.40;99.90;;;;;;4999964;28;20411;-80
2021/11/20 12:57:54;;;;;;;19.27;10.73;;;4.40;99.90;;;;;;5001684;28;20414;-80
2021/11/20 13:00:27;;;;;;;13.33;9.67;;;4.40;99.90;;;;;;5001449;28;20489;-80
2021/11/20 13:03:00;;;;;;;9.43;7.87;;;4.40;99.90;;;;;;5001823;28;20466;-80
2021/11/20 13:05:42;;;;;;;9.43;7.70;;;4.50;99.90;;;;;;5000682;28;20419;-80
2021/11/20 13:08:22;;;;;;;10.97;8.83;;;4.60;99.90;;;;;;5003088;28;20403;-79
2021/11/20 13:10:57;;;;;;;13.80;10.13;;;4.60;99.90;;;;;;5002104;28;20498;-80
2021/11/20 13:13:51;;;;;;;10.83;9.13;;;4.60;99.90;;;;;;4998549;28;20417;-79
2021/11/20 13:16:44;;;;;;;11.00;8.30;;;4.60;99.90;;;;;;4997808;28;20758;-80
2021/11/20 13:19:10;;;;;;;12.60;8.93;;;4.60;99.90;;;;;;5000466;28;20391;-80
2021/11/20 13:21:53;;;;;;;11.57;8.87;;;4.60;99.90;;;;;;4998196;28;20987;-80
2021/11/20 13:24:25;;;;;;;11.50;8.80;;;4.60;99.90;;;;;;4998437;28;20199;-79
2021/11/20 13:27:00;;;;;;;11.57;9.10;;;4.60;99.90;;;;;;4999618;28;20399;-79